Time;durP1;ratioP1;P1;durP2;ratioP2;P2;SDS_P1;SDS_P2;PMS_P1;PMS_P2;Temp;Humidity;BMP_temperature;BMP_pressure;BME280_temperature;BME280_humidity;BME280_pressure;Samples;Min_cycle;Max_cycle;Signal;HPM_P1;HPM_P2
2022/05/07 00:02:03;;;;;;;;;;;;;;;;;;5105135;28;1155;-74
2022/05/07 00:04:29;;;;;;;;;;;;;;;;;;5090091;28;1894;-74
2022/05/07 00:06:54;;;;;;;;;;;;;;;;;;5079426;28;1330;-74
2022/05/07 00:09:19;;;;;;;;;;;;;;;;;;5084403;28;1175;-74
2022/05/07 00:11:48;;;;;;;;;;;;;;;;;;5073446;28;1315;-76
2022/05/07 00:14:13;;;;;;;;;;;;;;;;;;5104461;28;1120;-75
2022/05/07 00:19:22;;;;;;;;;;;;;;;;;;5100113;28;1167;-76
2022/05/07 00:21:47;;;;;;;;;;;;;;;;;;5109461;28;1168;-75
2022/05/07 00:24:12;;;;;;;;;;;;;;;;;;5083355;28;1997;-75
2022/05/07 00:26:38;;;;;;;;;;;;;;;;;;5073776;28;1281;-75
2022/05/07 00:29:04;;;;;;;;;;;;;;;;;;5066459;28;1246;-75
2022/05/07 00:31:29;;;;;;;;;;;;;;;;;;5085415;28;1491;-76
2022/05/07 00:33:54;;;;;;;;;;;;;;;;;;5085007;28;1227;-74
2022/05/07 00:36:19;;;;;;;;;;;;;;;;;;5064572;28;1459;-74
2022/05/07 00:38:45;;;;;;;;;;;;;;;;;;5069033;28;1223;-75
2022/05/07 00:41:11;;;;;;;;;;;;;;;;;;5080767;28;1284;-75
2022/05/07 00:43:37;;;;;;;;;;;;;;;;;;5091144;28;1281;-75
2022/05/07 00:46:04;;;;;;;;;;;;;;;;;;5102604;28;1882;-75
2022/05/07 00:48:30;;;;;;;;;;;;;;;;;;5090691;28;1167;-75
2022/05/07 00:53:40;;;;;;;;;;;;;;;;;;5110059;28;1024;-73
2022/05/07 00:56:06;;;;;;;;;;;;;;;;;;5103281;28;1208;-74
2022/05/07 00:58:33;;;;;;;;;;;;;;;;;;5111391;28;1223;-74
2022/05/07 01:00:58;;;;;;;;;;;;;;;;;;5111688;28;1160;-74
2022/05/07 01:03:24;;;;;;;;;;;;;;;;;;5091576;28;1272;-75
2022/05/07 01:05:49;;;;;;;;;;;;;;;;;;5106888;28;2023;-75
2022/05/07 01:08:15;;;;;;;;;;;;;;;;;;5109216;28;1195;-75
2022/05/07 01:10:40;;;;;;;;;;;;;;;;;;5104916;28;1195;-74
2022/05/07 01:13:07;;;;;;;;;;;;;;;;;;5108984;28;1164;-74
2022/05/07 01:15:41;;;;;;;;;;;;;;;;;;5091394;28;1315;-74
2022/05/07 01:18:10;;;;;;;;;;;;;;;;;;5108857;28;1285;-74
2022/05/07 01:20:35;;;;;;;;;;;;;;;;;;5088084;28;1207;-74
2022/05/07 01:23:00;;;;;;;;;;;;;;;;;;5092001;28;1211;-74
2022/05/07 01:25:27;;;;;;;;;;;;;;;;;;5106161;28;1899;-75
2022/05/07 01:27:52;;;;;;;;;;;;;;;;;;5089261;28;1326;-75
2022/05/07 01:30:18;;;;;;;;;;;;;;;;;;5108422;28;1320;-74
2022/05/07 01:32:43;;;;;;;;;;;;;;;;;;5108984;28;1239;-74
2022/05/07 01:35:09;;;;;;;;;;;;;;;;;;5105664;28;1163;-74
2022/05/07 01:37:34;;;;;;;;;;;;;;;;;;5107775;28;1226;-74
2022/05/07 01:40:00;;;;;;;;;;;;;;;;;;5107184;28;1151;-73
2022/05/07 01:42:25;;;;;;;;;;;;;;;;;;5093516;28;1194;-75
2022/05/07 01:44:55;;;;;;;;;;;;;;;;;;5093474;28;1889;-75
2022/05/07 01:50:04;;;;;;;;;;;;;;;;;;5106872;28;1024;-73
2022/05/07 01:52:29;;;;;;;;;;;;;;;;;;5107635;28;1138;-73
2022/05/07 01:54:54;;;;;;;;;;;;;;;;;;5089582;28;1281;-74
2022/05/07 01:57:20;;;;;;;;;;;;;;;;;;5076207;28;1379;-74
2022/05/07 01:59:45;;;;;;;;;;;;;;;;;;5071619;28;1330;-75
2022/05/07 02:02:11;;;;;;;;;;;;;;;;;;5085511;28;1125;-74
2022/05/07 02:04:37;;;;;;;;;;;;;;;;;;5072605;28;1906;-74
2022/05/07 02:07:02;;;;;;;;;;;;;;;;;;5086717;28;1078;-74
2022/05/07 02:09:27;;;;;;;;;;;;;;;;;;5084645;28;1288;-74
2022/05/07 02:11:53;;;;;;;;;;;;;;;;;;5087222;28;1359;-74
2022/05/07 02:14:18;;;;;;;;;;;;;;;;;;5086227;28;1337;-75
2022/05/07 02:16:43;;;;;;;;;;;;;;;;;;5096191;28;1183;-75
2022/05/07 02:19:11;;;;;;;;;;;;;;;;;;5106849;28;1160;-74
2022/05/07 02:21:36;;;;;;;;;;;;;;;;;;5088440;28;1083;-74
2022/05/07 02:24:02;;;;;;;;;;;;;;;;;;5105460;28;1944;-74
2022/05/07 02:26:27;;;;;;;;;;;;;;;;;;5104094;28;1281;-74
2022/05/07 02:28:52;;;;;;;;;;;;;;;;;;5106860;28;1331;-75
2022/05/07 02:31:18;;;;;;;;;;;;;;;;;;5106575;28;1285;-74
2022/05/07 02:33:43;;;;;;;;;;;;;;;;;;5107580;28;1473;-75
2022/05/07 02:36:08;;;;;;;;;;;;;;;;;;5105317;28;1167;-74
2022/05/07 02:38:33;;;;;;;;;;;;;;;;;;5072295;28;1180;-74
2022/05/07 02:43:42;;;;;;;;;;;;;;;;;;5107456;28;1039;-73
2022/05/07 02:46:09;;;;;;;;;;;;;;;;;;5088515;28;1897;-74
2022/05/07 02:48:36;;;;;;;;;;;;;;;;;;5091106;28;1088;-73
2022/05/07 02:51:02;;;;;;;;;;;;;;;;;;5083925;28;1242;-74
2022/05/07 02:53:27;;;;;;;;;;;;;;;;;;5085861;28;1124;-74
2022/05/07 02:55:52;;;;;;;;;;;;;;;;;;5096492;28;1168;-75
2022/05/07 02:58:18;;;;;;;;;;;;;;;;;;5105371;28;1255;-74
2022/05/07 03:00:43;;;;;;;;;;;;;;;;;;5088330;28;1124;-74
2022/05/07 03:03:08;;;;;;;;;;;;;;;;;;5107274;28;1136;-75
2022/05/07 03:05:33;;;;;;;;;;;;;;;;;;5083912;28;1890;-74
2022/05/07 03:07:59;;;;;;;;;;;;;;;;;;5107621;28;1205;-74
2022/05/07 03:10:27;;;;;;;;;;;;;;;;;;5093905;28;1028;-74
2022/05/07 03:12:52;;;;;;;;;;;;;;;;;;5088145;28;1271;-73
2022/05/07 03:15:17;;;;;;;;;;;;;;;;;;5085524;28;1180;-74
2022/05/07 03:17:43;;;;;;;;;;;;;;;;;;5088228;28;1226;-74
2022/05/07 03:20:11;;;;;;;;;;;;;;;;;;5083236;28;1196;-74
2022/05/07 03:22:37;;;;;;;;;;;;;;;;;;5087322;28;1242;-75
2022/05/07 03:25:03;;;;;;;;;;;;;;;;;;5085223;28;1954;-74
2022/05/07 03:27:29;;;;;;;;;;;;;;;;;;5051218;28;1288;-75
2022/05/07 03:29:54;;;;;;;;;;;;;;;;;;5086535;28;1337;-74
2022/05/07 03:32:20;;;;;;;;;;;;;;;;;;5068137;28;1298;-74
2022/05/07 03:34:46;;;;;;;;;;;;;;;;;;5070444;28;1347;-75
2022/05/07 03:37:12;;;;;;;;;;;;;;;;;;5085294;28;1111;-75
2022/05/07 03:39:37;;;;;;;;;;;;;;;;;;5084307;28;1187;-75
2022/05/07 03:42:02;;;;;;;;;;;;;;;;;;5083349;28;1183;-75
2022/05/07 03:44:27;;;;;;;;;;;;;;;;;;5067883;28;1925;-75
2022/05/07 03:46:53;;;;;;;;;;;;;;;;;;5069312;28;1425;-73
2022/05/07 03:49:22;;;;;;;;;;;;;;;;;;5069017;28;1183;-74
2022/05/07 03:54:31;;;;;;;;;;;;;;;;;;5078720;28;1071;-75
2022/05/07 03:56:56;;;;;;;;;;;;;;;;;;5065835;28;1219;-74
2022/05/07 03:59:22;;;;;;;;;;;;;;;;;;5067146;28;1278;-75
2022/05/07 04:01:47;;;;;;;;;;;;;;;;;;5071245;28;1242;-74
2022/05/07 04:04:12;;;;;;;;;;;;;;;;;;5085536;28;1922;-75
2022/05/07 04:06:38;;;;;;;;;;;;;;;;;;5082792;28;1287;-75
2022/05/07 04:09:03;;;;;;;;;;;;;;;;;;5047941;28;1191;-75
2022/05/07 04:11:28;;;;;;;;;;;;;;;;;;5047351;28;1140;-75
2022/05/07 04:13:53;;;;;;;;;;;;;;;;;;5084879;28;1179;-75
2022/05/07 04:16:21;;;;;;;;;;;;;;;;;;5049293;28;1246;-76
2022/05/07 04:18:47;;;;;;;;;;;;;;;;;;5066090;28;1215;-75
2022/05/07 04:21:12;;;;;;;;;;;;;;;;;;5047299;28;1437;-75
2022/05/07 04:23:38;;;;;;;;;;;;;;;;;;5066945;28;1159;-73
2022/05/07 04:26:04;;;;;;;;;;;;;;;;;;5099432;28;1933;-74
2022/05/07 04:28:29;;;;;;;;;;;;;;;;;;5102941;28;1096;-74
2022/05/07 04:30:55;;;;;;;;;;;;;;;;;;5085079;28;1184;-74
2022/05/07 04:33:26;;;;;;;;;;;;;;;;;;5086205;28;1215;-74
2022/05/07 04:35:52;;;;;;;;;;;;;;;;;;5096762;28;1119;-74
2022/05/07 04:38:18;;;;;;;;;;;;;;;;;;5067187;28;1219;-75
2022/05/07 04:40:43;;;;;;;;;;;;;;;;;;5060792;28;1427;-75
2022/05/07 04:43:09;;;;;;;;;;;;;;;;;;5067518;28;1221;-74
2022/05/07 04:45:35;;;;;;;;;;;;;;;;;;5082255;28;1918;-74
2022/05/07 04:48:01;;;;;;;;;;;;;;;;;;5084578;28;1170;-73
2022/05/07 04:50:26;;;;;;;;;;;;;;;;;;5078775;28;1290;-74
2022/05/07 04:52:51;;;;;;;;;;;;;;;;;;5068571;28;1160;-74
2022/05/07 04:55:16;;;;;;;;;;;;;;;;;;5088247;28;1184;-74
2022/05/07 04:57:42;;;;;;;;;;;;;;;;;;5071228;28;1381;-74
2022/05/07 05:00:09;;;;;;;;;;;;;;;;;;5086803;28;1258;-75
2022/05/07 05:02:35;;;;;;;;;;;;;;;;;;5083431;28;1265;-76
2022/05/07 05:05:00;;;;;;;;;;;;;;;;;;5082046;28;1883;-73
2022/05/07 05:07:26;;;;;;;;;;;;;;;;;;5085906;28;1199;-73
2022/05/07 05:09:53;;;;;;;;;;;;;;;;;;5097379;28;1149;-74
2022/05/07 05:12:19;;;;;;;;;;;;;;;;;;5082601;28;1137;-74
2022/05/07 05:15:03;;;;;;;;;;;;;;;;;;5084249;28;1217;-74
2022/05/07 05:17:29;;;;;;;;;;;;;;;;;;5081909;28;1131;-75
2022/05/07 05:19:56;;;;;;;;;;;;;;;;;;5084744;28;1279;-75
2022/05/07 05:22:21;;;;;;;;;;;;;;;;;;5066750;28;1152;-74
2022/05/07 05:24:46;;;;;;;;;;;;;;;;;;5080583;28;2000;-74
2022/05/07 05:27:12;;;;;;;;;;;;;;;;;;5066380;28;1167;-74
2022/05/07 05:29:37;;;;;;;;;;;;;;;;;;5085801;28;1291;-75
2022/05/07 05:32:03;;;;;;;;;;;;;;;;;;5072049;28;1277;-75
2022/05/07 05:34:28;;;;;;;;;;;;;;;;;;5090606;28;1305;-74
2022/05/07 05:36:53;;;;;;;;;;;;;;;;;;5077159;28;1119;-75
2022/05/07 05:39:19;;;;;;;;;;;;;;;;;;5089121;28;1394;-75
2022/05/07 05:41:44;;;;;;;;;;;;;;;;;;5108726;28;1132;-75
2022/05/07 05:44:10;;;;;;;;;;;;;;;;;;5107588;28;1942;-74
2022/05/07 05:46:35;;;;;;;;;;;;;;;;;;5105708;28;1107;-74
2022/05/07 05:49:01;;;;;;;;;;;;;;;;;;5092391;28;1468;-74
2022/05/07 05:51:29;;;;;;;;;;;;;;;;;;5092049;28;1357;-73
2022/05/07 05:53:58;;;;;;;;;;;;;;;;;;5068242;28;1306;-74
2022/05/07 05:56:23;;;;;;;;;;;;;;;;;;5087463;28;1209;-74
2022/05/07 05:58:49;;;;;;;;;;;;;;;;;;5085254;28;1199;-75
2022/05/07 06:01:14;;;;;;;;;;;;;;;;;;5086469;28;1121;-75
2022/05/07 06:03:39;;;;;;;;;;;;;;;;;;5103566;28;1176;-75
2022/05/07 06:06:04;;;;;;;;;;;;;;;;;;5105750;28;1893;-74
2022/05/07 06:08:30;;;;;;;;;;;;;;;;;;5101244;28;1147;-75
2022/05/07 06:10:57;;;;;;;;;;;;;;;;;;5083872;28;1218;-75
2022/05/07 06:13:22;;;;;;;;;;;;;;;;;;5086038;28;1305;-75
2022/05/07 06:15:51;;;;;;;;;;;;;;;;;;5085283;28;1227;-75
2022/05/07 06:18:20;;;;;;;;;;;;;;;;;;5101627;28;1308;-75
2022/05/07 06:20:45;;;;;;;;;;;;;;;;;;5102840;28;1218;-74
2022/05/07 06:23:10;;;;;;;;;;;;;;;;;;5101978;28;1296;-73
2022/05/07 06:28:22;;;;;;;;;;;;;;;;;;5093329;28;1031;-74
2022/05/07 06:30:48;;;;;;;;;;;;;;;;;;5085322;28;1332;-74
2022/05/07 06:33:13;;;;;;;;;;;;;;;;;;5086615;28;1121;-74
2022/05/07 06:35:38;;;;;;;;;;;;;;;;;;5081841;28;1158;-74
2022/05/07 06:38:03;;;;;;;;;;;;;;;;;;5101810;28;1152;-73
2022/05/07 06:40:38;;;;;;;;;;;;;;;;;;5103535;28;1277;-74
2022/05/07 06:43:07;;;;;;;;;;;;;;;;;;5083938;28;1507;-74
2022/05/07 06:45:35;;;;;;;;;;;;;;;;;;5085948;28;1972;-75
2022/05/07 06:48:01;;;;;;;;;;;;;;;;;;5086804;28;1349;-74
2022/05/07 06:50:27;;;;;;;;;;;;;;;;;;5085819;28;1159;-75
2022/05/07 06:52:52;;;;;;;;;;;;;;;;;;5095577;28;1231;-75
2022/05/07 06:55:18;;;;;;;;;;;;;;;;;;5087375;28;1158;-74
2022/05/07 06:57:44;;;;;;;;;;;;;;;;;;5088240;28;1159;-74
2022/05/07 07:00:10;;;;;;;;;;;;;;;;;;5108644;28;794;-74
2022/05/07 07:02:35;;;;;;;;;;;;;;;;;;5106737;28;1254;-75
2022/05/07 07:05:02;;;;;;;;;;;;;;;;;;5087397;28;1928;-74
2022/05/07 07:07:27;;;;;;;;;;;;;;;;;;5091569;28;1300;-75
2022/05/07 07:09:53;;;;;;;;;;;;;;;;;;5104338;28;794;-75
2022/05/07 07:12:20;;;;;;;;;;;;;;;;;;5107994;28;940;-75
2022/05/07 07:14:47;;;;;;;;;;;;;;;;;;5089758;28;1186;-75
2022/05/07 07:17:12;;;;;;;;;;;;;;;;;;5108527;28;1190;-75
2022/05/07 07:19:41;;;;;;;;;;;;;;;;;;5109191;28;1152;-75
2022/05/07 07:22:07;;;;;;;;;;;;;;;;;;5103995;28;1227;-74
2022/05/07 07:24:32;;;;;;;;;;;;;;;;;;5104184;28;2051;-76
2022/05/07 07:26:57;;;;;;;;;;;;;;;;;;5101252;28;1274;-76
2022/05/07 07:29:23;;;;;;;;;;;;;;;;;;5089262;28;1255;-78
2022/05/07 07:31:48;;;;;;;;;;;;;;;;;;5087595;28;1281;-78
2022/05/07 07:34:13;;;;;;;;;;;;;;;;;;5086529;28;1216;-76
2022/05/07 07:36:38;;;;;;;;;;;;;;;;;;5065515;28;1214;-76
2022/05/07 07:39:07;;;;;;;;;;;;;;;;;;5066111;28;1374;-77
2022/05/07 07:41:34;;;;;;;;;;;;;;;;;;5067060;28;1197;-77
2022/05/07 07:43:59;;;;;;;;;;;;;;;;;;5084380;28;1926;-77
2022/05/07 07:49:09;;;;;;;;;;;;;;;;;;5094650;28;1000;-77
2022/05/07 07:51:34;;;;;;;;;;;;;;;;;;5099404;28;1203;-76
2022/05/07 07:54:00;;;;;;;;;;;;;;;;;;5102416;28;1068;-76
2022/05/07 07:56:25;;;;;;;;;;;;;;;;;;5102295;28;1155;-82
2022/05/07 07:58:51;;;;;;;;;;;;;;;;;;5085895;28;1259;-76
2022/05/07 08:01:16;;;;;;;;;;;;;;;;;;5095186;28;1020;-76
2022/05/07 08:03:42;;;;;;;;;;;;;;;;;;5083855;28;1172;-75
2022/05/07 08:06:07;;;;;;;;;;;;;;;;;;5083574;28;1967;-76
2022/05/07 08:14:01;;;;;;;;;;;;;;;;;;5105578;28;603;-76
2022/05/07 08:16:26;;;;;;;;;;;;;;;;;;5088754;28;1282;-74
2022/05/07 08:18:52;;;;;;;;;;;;;;;;;;5102352;28;1359;-74
2022/05/07 08:21:18;;;;;;;;;;;;;;;;;;5102078;28;791;-75
2022/05/07 08:23:43;;;;;;;;;;;;;;;;;;5102962;28;933;-75
2022/05/07 08:26:09;;;;;;;;;;;;;;;;;;5100342;28;1894;-75
2022/05/07 08:28:35;;;;;;;;;;;;;;;;;;5106227;28;1388;-75
2022/05/07 08:31:01;;;;;;;;;;;;;;;;;;5102751;28;1196;-75
2022/05/07 08:33:26;;;;;;;;;;;;;;;;;;5106557;28;802;-76
2022/05/07 08:35:52;;;;;;;;;;;;;;;;;;5103529;28;952;-76
2022/05/07 08:38:18;;;;;;;;;;;;;;;;;;5092979;28;1231;-75
2022/05/07 08:40:43;;;;;;;;;;;;;;;;;;5078798;28;1198;-75
2022/05/07 08:43:09;;;;;;;;;;;;;;;;;;5085265;28;1250;-74
2022/05/07 08:45:35;;;;;;;;;;;;;;;;;;5084759;28;2001;-75
2022/05/07 08:48:00;;;;;;;;;;;;;;;;;;5085401;28;1262;-75
2022/05/07 08:50:28;;;;;;;;;;;;;;;;;;5066039;28;1252;-76
2022/05/07 08:52:54;;;;;;;;;;;;;;;;;;5084369;28;1262;-73
2022/05/07 08:55:20;;;;;;;;;;;;;;;;;;5105153;28;1250;-76
2022/05/07 08:57:46;;;;;;;;;;;;;;;;;;5086015;28;1289;-75
2022/05/07 09:00:13;;;;;;;;;;;;;;;;;;5071214;28;1434;-74
2022/05/07 09:02:49;;;;;;;;;;;;;;;;;;5110408;28;909;-75
2022/05/07 09:05:15;;;;;;;;;;;;;;;;;;5108540;28;1954;-73
2022/05/07 09:07:50;;;;;;;;;;;;;;;;;;5105815;28;1192;-74
2022/05/07 09:10:16;;;;;;;;;;;;;;;;;;5087100;28;1056;-74
2022/05/07 09:12:44;;;;;;;;;;;;;;;;;;5069109;28;1284;-74
2022/05/07 09:15:10;;;;;;;;;;;;;;;;;;5087811;28;1006;-74
2022/05/07 09:17:36;;;;;;;;;;;;;;;;;;5089330;28;1154;-74
2022/05/07 09:20:12;;;;;;;;;;;;;;;;;;5087320;28;944;-74
2022/05/07 09:22:54;;;;;;;;;;;;;;;;;;5087527;28;858;-74
2022/05/07 09:25:23;;;;;;;;;;;;;;;;;;5086698;28;1961;-76
2022/05/07 09:27:59;;;;;;;;;;;;;;;;;;5104966;28;1226;-76
2022/05/07 09:30:28;;;;;;;;;;;;;;;;;;5109141;28;1327;-77
2022/05/07 09:32:54;;;;;;;;;;;;;;;;;;5089337;28;1295;-74
2022/05/07 09:38:08;;;;;;;;;;;;;;;;;;5088396;28;1179;-74
2022/05/07 09:40:36;;;;;;;;;;;;;;;;;;5082551;28;1241;-74
2022/05/07 09:43:02;;;;;;;;;;;;;;;;;;5085876;28;1254;-75
2022/05/07 09:45:27;;;;;;;;;;;;;;;;;;5103927;28;1889;-75
2022/05/07 09:47:58;;;;;;;;;;;;;;;;;;5109259;28;841;-75
2022/05/07 09:50:24;;;;;;;;;;;;;;;;;;5110244;28;1206;-76
2022/05/07 09:58:20;;;;;;;;;;;;;;;;;;5113499;28;743;-75
2022/05/07 10:01:12;;;;;;;;;;;;;;;;;;5113511;28;1216;-75
2022/05/07 10:03:41;;;;;;;;;;;;;;;;;;5090206;28;1187;-75
2022/05/07 10:06:07;;;;;;;;;;;;;;;;;;5109834;28;1923;-75
2022/05/07 10:08:40;;;;;;;;;;;;;;;;;;5115417;28;786;-73
2022/05/07 10:11:07;;;;;;;;;;;;;;;;;;5107091;28;813;-74
2022/05/07 10:13:33;;;;;;;;;;;;;;;;;;5119965;28;1000;-74
2022/05/07 10:16:03;;;;;;;;;;;;;;;;;;5114839;28;1224;-73
2022/05/07 10:18:41;;;;;;;;;;;;;;;;;;5117065;27;1056;-74
2022/05/07 10:21:17;;;;;;;;;;;;;;;;;;5104418;28;1286;-76
2022/05/07 10:23:49;;;;;;;;;;;;;;;;;;5111997;28;1175;-76
2022/05/07 10:26:15;;;;;;;;;;;;;;;;;;5103323;28;1905;-74
2022/05/07 10:28:42;;;;;;;;;;;;;;;;;;5108764;28;1164;-76
2022/05/07 10:31:20;;;;;;;;;;;;;;;;;;5107181;28;1209;-77
2022/05/07 10:33:46;;;;;;;;;;;;;;;;;;5108415;28;1274;-76
2022/05/07 10:36:11;;;;;;;;;;;;;;;;;;5088382;28;1362;-74
2022/05/07 10:38:38;;;;;;;;;;;;;;;;;;5103241;28;1352;-80
2022/05/07 10:41:17;;;;;;;;;;;;;;;;;;5086360;28;1291;-76
2022/05/07 10:43:55;;;;;;;;;;;;;;;;;;5085203;28;1839;-78
2022/05/07 10:46:22;;;;;;;;;;;;;;;;;;5087919;28;1986;-75
2022/05/07 10:48:53;;;;;;;;;;;;;;;;;;5086749;28;1275;-76
2022/05/07 10:51:37;;;;;;;;;;;;;;;;;;5089757;28;1352;-75
2022/05/07 10:54:14;;;;;;;;;;;;;;;;;;5105931;28;1131;-75
2022/05/07 10:56:45;;;;;;;;;;;;;;;;;;5088651;28;1305;-76
2022/05/07 10:59:10;;;;;;;;;;;;;;;;;;5082901;28;1290;-76
2022/05/07 11:01:36;;;;;;;;;;;;;;;;;;5087140;28;1178;-75
2022/05/07 11:04:04;;;;;;;;;;;;;;;;;;5092952;28;1293;-75
2022/05/07 11:06:30;;;;;;;;;;;;;;;;;;5095037;28;2015;-76
2022/05/07 11:09:01;;;;;;;;;;;;;;;;;;5067669;28;1247;-75
2022/05/07 11:11:26;;;;;;;;;;;;;;;;;;5083875;28;1204;-76
2022/05/07 11:13:53;;;;;;;;;;;;;;;;;;5067716;28;1323;-76
2022/05/07 11:16:19;;;;;;;;;;;;;;;;;;5091310;28;1128;-75
2022/05/07 11:18:47;;;;;;;;;;;;;;;;;;5088225;28;1214;-74
2022/05/07 11:21:13;;;;;;;;;;;;;;;;;;5104167;28;1053;-74
2022/05/07 11:23:43;;;;;;;;;;;;;;;;;;5106631;28;1143;-73
2022/05/07 11:26:12;;;;;;;;;;;;;;;;;;5098555;28;1949;-73
2022/05/07 11:28:39;;;;;;;;;;;;;;;;;;5106385;28;1116;-73
2022/05/07 11:31:04;;;;;;;;;;;;;;;;;;5085587;28;1516;-76
2022/05/07 11:33:29;;;;;;;;;;;;;;;;;;5099184;28;1188;-76
2022/05/07 11:36:01;;;;;;;;;;;;;;;;;;5095382;28;1223;-76
2022/05/07 11:38:27;;;;;;;;;;;;;;;;;;5084523;28;1402;-76
2022/05/07 11:40:52;;;;;;;;;;;;;;;;;;5092349;28;1184;-76
2022/05/07 11:46:06;;;;;;;;;;;;;;;;;;5089432;28;1890;-76
2022/05/07 11:48:31;;;;;;;;;;;;;;;;;;5102919;28;1297;-75
2022/05/07 11:51:02;;;;;;;;;;;;;;;;;;5101847;28;1132;-75
2022/05/07 11:53:28;;;;;;;;;;;;;;;;;;5104441;28;1256;-76
2022/05/07 11:56:03;;;;;;;;;;;;;;;;;;5086280;28;1419;-75
2022/05/07 11:58:29;;;;;;;;;;;;;;;;;;5102463;28;1120;-74
2022/05/07 12:00:58;;;;;;;;;;;;;;;;;;5098227;28;1172;-77
2022/05/07 12:03:24;;;;;;;;;;;;;;;;;;5104157;28;1304;-76
2022/05/07 12:05:50;;;;;;;;;;;;;;;;;;5100834;28;1964;-76
2022/05/07 12:08:17;;;;;;;;;;;;;;;;;;5101865;28;1428;-77
2022/05/07 12:10:43;;;;;;;;;;;;;;;;;;5092674;28;1147;-77
2022/05/07 12:13:08;;;;;;;;;;;;;;;;;;5084466;28;1158;-77
2022/05/07 12:18:19;;;;;;;;;;;;;;;;;;5099784;28;987;-76
2022/05/07 12:20:45;;;;;;;;;;;;;;;;;;5071310;28;1312;-76
2022/05/07 12:31:22;;;;;;;;;;;;;;;;;;5094495;28;1036;-77
2022/05/07 12:33:52;;;;;;;;;;;;;;;;;;5086017;28;1188;-76
2022/05/07 12:36:18;;;;;;;;;;;;;;;;;;5066449;28;1271;-76
2022/05/07 12:38:43;;;;;;;;;;;;;;;;;;5085775;28;1219;-75
2022/05/07 12:41:08;;;;;;;;;;;;;;;;;;5081171;28;1188;-74
2022/05/07 12:43:34;;;;;;;;;;;;;;;;;;5070011;28;1269;-77
2022/05/07 12:46:03;;;;;;;;;;;;;;;;;;5084716;28;1975;-75
2022/05/07 12:48:29;;;;;;;;;;;;;;;;;;5083817;28;1202;-74
2022/05/07 12:50:54;;;;;;;;;;;;;;;;;;5090973;28;1445;-77
2022/05/07 12:53:20;;;;;;;;;;;;;;;;;;5095573;28;1187;-75
2022/05/07 12:55:46;;;;;;;;;;;;;;;;;;5063150;28;1329;-79
2022/05/07 12:58:11;;;;;;;;;;;;;;;;;;5067282;28;1198;-76
2022/05/07 13:00:40;;;;;;;;;;;;;;;;;;5099437;28;1274;-76
2022/05/07 13:03:06;;;;;;;;;;;;;;;;;;5080088;28;1779;-76
2022/05/07 13:05:33;;;;;;;;;;;;;;;;;;5097221;28;1893;-77
2022/05/07 13:08:00;;;;;;;;;;;;;;;;;;5103732;28;1160;-76
2022/05/07 13:10:35;;;;;;;;;;;;;;;;;;5067121;28;1426;-75
2022/05/07 13:13:05;;;;;;;;;;;;;;;;;;5104135;28;1259;-76
2022/05/07 13:15:31;;;;;;;;;;;;;;;;;;5086225;28;1245;-76
2022/05/07 13:17:57;;;;;;;;;;;;;;;;;;5104334;28;1282;-75
2022/05/07 13:20:23;;;;;;;;;;;;;;;;;;5100062;28;1337;-75
2022/05/07 13:22:48;;;;;;;;;;;;;;;;;;5096926;28;1215;-75
2022/05/07 13:25:14;;;;;;;;;;;;;;;;;;5076147;28;1956;-74
2022/05/07 13:27:39;;;;;;;;;;;;;;;;;;5081868;28;1166;-76
2022/05/07 13:30:08;;;;;;;;;;;;;;;;;;5095008;28;1378;-76
2022/05/07 13:32:34;;;;;;;;;;;;;;;;;;5104451;28;1262;-75
2022/05/07 13:35:09;;;;;;;;;;;;;;;;;;5085991;28;1621;-75
2022/05/07 13:37:35;;;;;;;;;;;;;;;;;;5083037;28;1104;-76
2022/05/07 13:40:00;;;;;;;;;;;;;;;;;;5088156;28;1467;-75
2022/05/07 13:42:26;;;;;;;;;;;;;;;;;;5081222;28;1191;-75
2022/05/07 13:44:54;;;;;;;;;;;;;;;;;;5082395;28;1910;-80
2022/05/07 13:47:23;;;;;;;;;;;;;;;;;;5096046;28;1219;-76
2022/05/07 13:49:49;;;;;;;;;;;;;;;;;;5093285;28;1231;-76
2022/05/07 13:52:14;;;;;;;;;;;;;;;;;;5084407;28;1013;-76
2022/05/07 13:54:39;;;;;;;;;;;;;;;;;;5087275;28;1140;-76
2022/05/07 13:57:10;;;;;;;;;;;;;;;;;;5105118;28;1191;-77
2022/05/07 13:59:35;;;;;;;;;;;;;;;;;;5077788;28;1325;-74
2022/05/07 14:02:02;;;;;;;;;;;;;;;;;;5087195;28;1168;-75
2022/05/07 14:04:27;;;;;;;;;;;;;;;;;;5085885;28;1890;-76
2022/05/07 14:06:55;;;;;;;;;;;;;;;;;;5084630;28;1243;-75
2022/05/07 14:09:20;;;;;;;;;;;;;;;;;;5090693;28;1293;-76
2022/05/07 14:11:45;;;;;;;;;;;;;;;;;;5095047;28;1234;-76
2022/05/07 14:14:11;;;;;;;;;;;;;;;;;;5088900;28;1226;-77
2022/05/07 14:16:36;;;;;;;;;;;;;;;;;;5087408;28;1578;-77
2022/05/07 14:19:02;;;;;;;;;;;;;;;;;;5088721;28;1160;-77
2022/05/07 14:21:27;;;;;;;;;;;;;;;;;;5065936;28;1327;-77
2022/05/07 14:23:59;;;;;;;;;;;;;;;;;;5070295;28;1225;-83
2022/05/07 14:26:25;;;;;;;;;;;;;;;;;;5066175;28;1903;-78
2022/05/07 14:28:53;;;;;;;;;;;;;;;;;;5070916;28;1352;-77
2022/05/07 14:31:18;;;;;;;;;;;;;;;;;;5084940;28;1221;-77
2022/05/07 14:33:45;;;;;;;;;;;;;;;;;;5069164;28;1171;-77
2022/05/07 14:36:13;;;;;;;;;;;;;;;;;;5082962;28;1329;-77
2022/05/07 14:38:39;;;;;;;;;;;;;;;;;;5102627;28;1172;-77
2022/05/07 14:41:04;;;;;;;;;;;;;;;;;;5108681;28;853;-77
2022/05/07 14:43:29;;;;;;;;;;;;;;;;;;5104838;28;1461;-77
2022/05/07 14:45:54;;;;;;;;;;;;;;;;;;5107836;28;1906;-77
2022/05/07 14:48:22;;;;;;;;;;;;;;;;;;5087442;28;1195;-77
2022/05/07 14:50:48;;;;;;;;;;;;;;;;;;5102875;28;1168;-76
2022/05/07 14:53:14;;;;;;;;;;;;;;;;;;5107269;27;916;-78
2022/05/07 14:55:39;;;;;;;;;;;;;;;;;;5085321;28;1289;-78
2022/05/07 14:58:05;;;;;;;;;;;;;;;;;;5109257;28;939;-77
2022/05/07 15:00:30;;;;;;;;;;;;;;;;;;5103563;28;1174;-76
2022/05/07 15:02:55;;;;;;;;;;;;;;;;;;5107701;28;1072;-76
2022/05/07 15:05:21;;;;;;;;;;;;;;;;;;5086023;28;1898;-77
2022/05/07 15:07:46;;;;;;;;;;;;;;;;;;5108277;28;1143;-77
2022/05/07 15:12:58;;;;;;;;;;;;;;;;;;5107783;28;1016;-78
2022/05/07 15:15:27;;;;;;;;;;;;;;;;;;5101256;28;1254;-78
2022/05/07 15:17:52;;;;;;;;;;;;;;;;;;5106923;28;1191;-77
2022/05/07 15:20:18;;;;;;;;;;;;;;;;;;5101024;28;1375;-78
2022/05/07 15:22:43;;;;;;;;;;;;;;;;;;5087571;28;1325;-78
2022/05/07 15:25:09;;;;;;;;;;;;;;;;;;5103774;28;1929;-78
2022/05/07 15:27:34;;;;;;;;;;;;;;;;;;5099903;28;1120;-78
2022/05/07 15:30:00;;;;;;;;;;;;;;;;;;5084390;28;1165;-77
2022/05/07 15:38:06;;;;;;;;;;;;;;;;;;5084386;28;1060;-72
2022/05/07 15:40:35;;;;;;;;;;;;;;;;;;5090992;28;1061;-72
2022/05/07 15:43:00;;;;;;;;;;;;;;;;;;5090939;28;1150;-72
2022/05/07 15:45:25;;;;;;;;;;;;;;;;;;5082437;28;1897;-72
2022/05/07 15:47:52;;;;;;;;;;;;;;;;;;5067088;28;1296;-72
2022/05/07 15:50:17;;;;;;;;;;;;;;;;;;5088527;28;1360;-73
2022/05/07 15:52:43;;;;;;;;;;;;;;;;;;5087069;28;1321;-74
2022/05/07 15:55:08;;;;;;;;;;;;;;;;;;5082772;28;1273;-73
2022/05/07 15:57:34;;;;;;;;;;;;;;;;;;5102530;28;1163;-73
2022/05/07 15:59:59;;;;;;;;;;;;;;;;;;5103789;28;1233;-73
2022/05/07 16:02:24;;;;;;;;;;;;;;;;;;5102137;28;1100;-73
2022/05/07 16:04:49;;;;;;;;;;;;;;;;;;5104710;28;1866;-74
2022/05/07 16:07:15;;;;;;;;;;;;;;;;;;5099211;28;1585;-75
2022/05/07 16:09:41;;;;;;;;;;;;;;;;;;5101092;28;1074;-75
2022/05/07 16:12:07;;;;;;;;;;;;;;;;;;5088883;28;1147;-74
2022/05/07 16:14:32;;;;;;;;;;;;;;;;;;5080789;28;1409;-74
2022/05/07 16:16:58;;;;;;;;;;;;;;;;;;5083601;28;1320;-74
2022/05/07 16:19:25;;;;;;;;;;;;;;;;;;5084221;28;1148;-74
2022/05/07 16:21:50;;;;;;;;;;;;;;;;;;5100189;28;1333;-74
2022/05/07 16:27:00;;;;;;;;;;;;;;;;;;5088245;28;1019;-75
2022/05/07 16:29:26;;;;;;;;;;;;;;;;;;5078435;28;1150;-74
2022/05/07 16:31:51;;;;;;;;;;;;;;;;;;5081362;28;1132;-75
2022/05/07 16:34:19;;;;;;;;;;;;;;;;;;5077997;28;1189;-74
2022/05/07 16:36:44;;;;;;;;;;;;;;;;;;5068542;28;1215;-74
2022/05/07 16:39:10;;;;;;;;;;;;;;;;;;5073475;28;1191;-74
2022/05/07 16:41:36;;;;;;;;;;;;;;;;;;5055586;28;1068;-74
2022/05/07 16:44:01;;;;;;;;;;;;;;;;;;5075269;28;1391;-73
2022/05/07 16:46:26;;;;;;;;;;;;;;;;;;5078458;28;1988;-74
2022/05/07 16:48:51;;;;;;;;;;;;;;;;;;5061038;28;1417;-75
2022/05/07 16:51:17;;;;;;;;;;;;;;;;;;5079658;28;1289;-74
2022/05/07 16:53:42;;;;;;;;;;;;;;;;;;5077109;28;1037;-75
2022/05/07 16:56:08;;;;;;;;;;;;;;;;;;5086119;28;1527;-75
2022/05/07 16:58:33;;;;;;;;;;;;;;;;;;5097743;28;1312;-74
2022/05/07 17:00:59;;;;;;;;;;;;;;;;;;5098855;28;1290;-74
2022/05/07 17:03:27;;;;;;;;;;;;;;;;;;5081816;28;1280;-73
2022/05/07 17:05:53;;;;;;;;;;;;;;;;;;5100182;28;1914;-73
2022/05/07 17:08:19;;;;;;;;;;;;;;;;;;5086047;28;1202;-74
2022/05/07 17:10:44;;;;;;;;;;;;;;;;;;5072219;28;1028;-73
2022/05/07 17:13:09;;;;;;;;;;;;;;;;;;5076437;28;1292;-73
2022/05/07 17:15:34;;;;;;;;;;;;;;;;;;5059378;28;1284;-74
2022/05/07 17:18:00;;;;;;;;;;;;;;;;;;5076858;28;1451;-73
2022/05/07 17:20:28;;;;;;;;;;;;;;;;;;5084538;28;1183;-72
2022/05/07 17:22:54;;;;;;;;;;;;;;;;;;5082673;28;1282;-74
2022/05/07 17:25:19;;;;;;;;;;;;;;;;;;5083526;28;1954;-74
2022/05/07 17:27:45;;;;;;;;;;;;;;;;;;5079152;28;1395;-72
2022/05/07 17:30:10;;;;;;;;;;;;;;;;;;5088112;28;1207;-73
2022/05/07 17:32:36;;;;;;;;;;;;;;;;;;5086333;28;1140;-73
2022/05/07 17:35:01;;;;;;;;;;;;;;;;;;5086959;28;1128;-73
2022/05/07 17:37:29;;;;;;;;;;;;;;;;;;5084339;28;1184;-73
2022/05/07 17:39:54;;;;;;;;;;;;;;;;;;5085289;28;1236;-74
2022/05/07 17:42:20;;;;;;;;;;;;;;;;;;5082935;28;1276;-74
2022/05/07 17:44:46;;;;;;;;;;;;;;;;;;5086910;28;1889;-73
2022/05/07 17:47:11;;;;;;;;;;;;;;;;;;5086437;28;1149;-73
2022/05/07 17:49:36;;;;;;;;;;;;;;;;;;5085646;28;1289;-74
2022/05/07 17:52:02;;;;;;;;;;;;;;;;;;5070079;28;1284;-74
2022/05/07 17:54:28;;;;;;;;;;;;;;;;;;5085275;28;1128;-74
2022/05/07 17:56:53;;;;;;;;;;;;;;;;;;5067070;28;1377;-74